createdAt,value
2019-01-21T00:00:02.270Z,80.23
2019-01-21T00:01:02.286Z,80.90
2019-01-21T00:03:14.754Z,80.69
2019-01-21T00:04:13.218Z,80.27
2019-01-21T00:05:21.177Z,80.16
2019-01-21T00:06:13.072Z,80.37
2019-01-21T00:07:13.159Z,80.48
2019-01-21T00:08:13.020Z,81.01
2019-01-21T00:09:13.027Z,80.37
2019-01-21T00:10:12.944Z,80.48
2019-01-21T00:11:12.943Z,80.69
2019-01-21T00:12:12.929Z,80.58
2019-01-21T00:13:12.917Z,80.48
2019-01-21T00:14:12.929Z,80.73
2019-01-21T00:15:12.898Z,80.80
2019-01-21T00:16:12.884Z,80.90
2019-01-21T00:17:12.887Z,80.69
2019-01-21T00:18:12.892Z,80.58
2019-01-21T00:19:12.907Z,80.62
2019-01-21T00:20:12.843Z,80.73
2019-01-21T00:21:12.831Z,80.90
2019-01-21T00:22:12.825Z,80.73
2019-01-21T00:23:12.828Z,80.52
2019-01-21T00:24:12.801Z,80.62
2019-01-21T00:25:12.820Z,80.52
2019-01-21T00:26:12.791Z,81.15
2019-01-21T00:27:12.828Z,80.94
2019-01-21T00:28:12.775Z,80.52
2019-01-21T00:29:12.753Z,80.52
2019-01-21T00:30:12.786Z,80.41
2019-01-21T00:31:12.735Z,80.30
2019-01-21T00:32:12.731Z,80.20
2019-01-21T00:33:12.720Z,80.41
2019-01-21T00:34:12.706Z,80.20
2019-01-21T00:35:12.730Z,80.41
2019-01-21T00:36:12.715Z,79.99
2019-01-21T00:37:20.335Z,80.02
2019-01-21T00:38:12.756Z,80.20
2019-01-21T00:39:20.342Z,80.20
2019-01-21T00:40:12.733Z,80.73
2019-01-21T00:41:12.850Z,80.41
2019-01-21T00:42:12.643Z,80.55
2019-01-21T00:43:12.661Z,80.41
2019-01-21T00:44:20.297Z,80.20
2019-01-21T00:45:12.691Z,80.41
2019-01-21T00:46:12.842Z,80.20
2019-01-21T00:47:12.618Z,80.44
2019-01-21T00:48:12.603Z,80.24
2019-01-21T00:49:12.561Z,80.41
2019-01-21T00:50:12.556Z,79.88
2019-01-21T00:51:12.542Z,80.44
2019-01-21T00:52:12.543Z,80.55
2019-01-21T00:53:20.316Z,79.92
2019-01-21T00:54:12.585Z,80.66
2019-01-21T00:55:12.707Z,80.55
2019-01-21T00:56:20.187Z,80.24
2019-01-21T00:57:12.617Z,80.44
2019-01-21T00:58:12.556Z,80.55
2019-01-21T00:59:22.461Z,80.44
2019-01-21T01:00:12.559Z,79.81
2019-01-21T01:01:12.540Z,80.44
2019-01-21T01:02:12.468Z,80.13
2019-01-21T01:03:12.415Z,80.44
2019-01-21T01:04:12.403Z,80.55
2019-01-21T01:05:12.396Z,80.98
2019-01-21T01:06:12.385Z,80.34
2019-01-21T01:07:20.089Z,80.76
2019-01-21T01:08:12.443Z,80.55
2019-01-21T01:09:12.540Z,80.44
2019-01-21T01:10:12.354Z,80.24
2019-01-21T01:11:12.335Z,80.55
2019-01-21T01:12:12.329Z,80.24
2019-01-21T01:13:12.357Z,80.24
2019-01-21T01:14:12.303Z,80.24
2019-01-21T01:15:12.293Z,80.34
2019-01-21T01:16:12.286Z,80.13
2019-01-21T01:17:12.271Z,80.66
2019-01-21T01:18:12.289Z,80.24
2019-01-21T01:19:12.257Z,80.44
2019-01-21T01:20:12.246Z,80.66
2019-01-21T01:21:12.231Z,80.66
2019-01-21T01:22:12.245Z,80.13
2019-01-21T01:23:12.236Z,80.38
2019-01-21T01:24:12.211Z,80.55
2019-01-21T01:25:12.205Z,80.98
2019-01-21T01:26:12.188Z,80.27
2019-01-21T01:27:12.174Z,80.69
2019-01-21T01:28:12.166Z,81.01
2019-01-21T01:29:12.175Z,80.80
2019-01-21T01:30:12.148Z,81.33
2019-01-21T01:31:12.133Z,81.33
2019-01-21T01:32:12.148Z,81.33
2019-01-21T01:33:12.110Z,81.33
2019-01-21T01:34:12.134Z,80.91
2019-01-21T01:35:12.116Z,81.01
2019-01-21T01:36:12.080Z,81.23
2019-01-21T01:37:12.066Z,81.33
2019-01-21T01:38:12.066Z,81.23
2019-01-21T01:39:12.051Z,81.61
2019-01-21T01:40:12.099Z,81.23
2019-01-21T01:41:12.032Z,80.76
2019-01-21T01:42:12.026Z,81.12
2019-01-21T01:43:13.345Z,80.76
2019-01-21T01:44:11.996Z,80.91
2019-01-21T01:45:12.013Z,81.12
2019-01-21T01:46:12.000Z,81.33
2019-01-21T01:47:11.976Z,81.23
2019-01-21T01:48:11.977Z,81.75
2019-01-21T01:49:11.965Z,81.23
2019-01-21T01:50:11.971Z,81.43
2019-01-21T01:51:11.937Z,81.43
2019-01-21T01:52:11.963Z,81.19
2019-01-21T01:53:11.915Z,81.96
2019-01-21T01:54:11.899Z,81.23
2019-01-21T01:55:11.897Z,81.23
2019-01-21T01:56:11.940Z,81.75
2019-01-21T01:57:11.871Z,81.01
2019-01-21T01:58:11.864Z,81.23
2019-01-21T01:59:11.860Z,81.33
2019-01-21T02:00:11.841Z,81.01
2019-01-21T02:01:11.867Z,81.12
2019-01-21T02:02:11.828Z,81.01
2019-01-21T02:03:11.855Z,80.59
2019-01-21T02:04:11.803Z,80.69
2019-01-21T02:05:11.795Z,80.80
2019-01-21T02:06:11.779Z,80.80
2019-01-21T02:07:11.788Z,80.80
2019-01-21T02:08:11.761Z,80.69
2019-01-21T02:09:11.778Z,81.43
2019-01-21T02:10:11.739Z,81.12
2019-01-21T02:11:11.733Z,81.12
2019-01-21T02:12:11.742Z,81.33
2019-01-21T02:13:11.725Z,81.01
2019-01-21T02:14:11.738Z,80.48
2019-01-21T02:15:11.693Z,80.48
2019-01-21T02:16:11.716Z,80.48
2019-01-21T02:17:11.695Z,80.38
2019-01-21T02:18:11.659Z,80.38
2019-01-21T02:19:11.657Z,80.80
2019-01-21T02:20:11.717Z,80.91
2019-01-21T02:21:11.631Z,80.62
2019-01-21T02:22:11.930Z,80.59
2019-01-21T02:23:11.618Z,80.69
2019-01-21T02:24:11.609Z,80.48
2019-01-21T02:25:11.594Z,80.52
2019-01-21T02:26:11.579Z,80.69
2019-01-21T02:27:11.642Z,80.91
2019-01-21T02:28:11.559Z,80.59
2019-01-21T02:29:11.547Z,80.59
2019-01-21T02:30:11.539Z,80.59
2019-01-21T02:31:11.539Z,80.10
2019-01-21T02:32:11.548Z,80.62
2019-01-21T02:33:11.509Z,80.73
2019-01-21T02:34:11.495Z,80.73
2019-01-21T02:35:11.491Z,79.99
2019-01-21T02:36:11.513Z,80.52
2019-01-21T02:37:11.509Z,80.62
2019-01-21T02:38:11.469Z,80.41
2019-01-21T02:39:11.448Z,80.52
2019-01-21T02:40:11.438Z,80.30
2019-01-21T02:41:11.433Z,80.27
2019-01-21T02:42:11.548Z,80.52
2019-01-21T02:43:11.416Z,80.69
2019-01-21T02:44:11.396Z,80.73
2019-01-21T02:45:11.391Z,80.10
2019-01-21T02:46:11.390Z,80.73
2019-01-21T02:47:11.398Z,80.41
2019-01-21T02:48:11.379Z,80.73
2019-01-21T02:49:11.386Z,80.73
2019-01-21T02:50:11.361Z,80.10
2019-01-21T02:51:11.326Z,80.45
2019-01-21T02:52:11.334Z,80.13
2019-01-21T02:53:11.331Z,80.13
2019-01-21T02:54:11.305Z,80.77
2019-01-21T02:55:11.301Z,80.52
2019-01-21T02:56:11.289Z,80.30
2019-01-21T02:57:11.276Z,80.34
2019-01-21T02:58:11.266Z,80.62
2019-01-21T02:59:11.275Z,80.62
2019-01-21T03:00:11.238Z,80.87
2019-01-21T03:01:11.240Z,80.55
2019-01-21T03:02:11.226Z,80.73
2019-01-21T03:03:11.222Z,80.45
2019-01-21T03:04:11.226Z,80.34
2019-01-21T03:05:11.206Z,80.83
2019-01-21T03:06:11.179Z,80.41
2019-01-21T03:07:11.177Z,80.30
2019-01-21T03:08:11.195Z,80.45
2019-01-21T03:09:11.167Z,80.55
2019-01-21T03:10:11.145Z,80.73
2019-01-21T03:11:11.138Z,80.24
2019-01-21T03:12:11.122Z,80.45
2019-01-21T03:13:11.864Z,80.66
2019-01-21T03:14:11.126Z,80.34
2019-01-21T03:15:11.105Z,80.24
2019-01-21T03:16:11.082Z,80.45
2019-01-21T03:17:11.131Z,80.24
2019-01-21T03:18:11.059Z,80.66
2019-01-21T03:19:11.050Z,80.77
2019-01-21T03:20:11.061Z,80.77
2019-01-21T03:21:11.032Z,80.55
2019-01-21T03:22:11.042Z,80.77
2019-01-21T03:23:11.015Z,80.55
2019-01-21T03:24:11.046Z,80.87
2019-01-21T03:25:10.996Z,80.45
2019-01-21T03:26:10.979Z,80.66
2019-01-21T03:27:10.990Z,80.45
2019-01-21T03:28:10.963Z,80.77
2019-01-21T03:29:10.952Z,80.73
2019-01-21T03:30:11.011Z,80.77
2019-01-21T03:31:10.932Z,80.66
2019-01-21T03:32:10.929Z,80.45
2019-01-21T03:33:10.910Z,80.98
2019-01-21T03:34:10.947Z,80.87
2019-01-21T03:35:10.935Z,80.77
2019-01-21T03:36:10.902Z,80.45
2019-01-21T03:37:10.881Z,80.66
2019-01-21T03:38:10.905Z,80.87
2019-01-21T03:39:10.847Z,80.34
2019-01-21T03:40:10.880Z,80.55
2019-01-21T03:41:10.831Z,80.24
2019-01-21T03:42:10.826Z,80.66
2019-01-21T03:43:10.823Z,80.55
2019-01-21T03:44:10.807Z,80.45
2019-01-21T03:45:10.793Z,80.38
2019-01-21T03:46:10.803Z,80.66
2019-01-21T03:47:10.794Z,80.59
2019-01-21T03:48:16.519Z,80.55
2019-01-21T03:49:11.757Z,80.38
2019-01-21T03:50:10.739Z,80.17
2019-01-21T03:51:12.429Z,80.69
2019-01-21T03:52:10.718Z,80.38
2019-01-21T03:53:10.709Z,80.59
2019-01-21T03:54:10.706Z,80.69
2019-01-21T03:55:10.703Z,80.55
2019-01-21T03:56:10.699Z,80.49
2019-01-21T03:57:10.714Z,81.01
2019-01-21T03:58:10.668Z,81.01
2019-01-21T03:59:10.653Z,81.01
2019-01-21T04:00:10.643Z,80.80
2019-01-21T04:01:10.672Z,79.96
2019-01-21T04:02:10.627Z,80.69
2019-01-21T04:03:10.622Z,80.17
2019-01-21T04:04:10.618Z,79.96
2019-01-21T04:05:10.594Z,79.96
2019-01-21T04:06:10.580Z,80.17
2019-01-21T04:07:10.597Z,79.96
2019-01-21T04:08:10.577Z,80.06
2019-01-21T04:09:10.555Z,79.96
2019-01-21T04:10:10.539Z,80.38
2019-01-21T04:11:10.534Z,80.06
2019-01-21T04:12:10.541Z,80.59
2019-01-21T04:13:10.561Z,80.80
2019-01-21T04:14:10.502Z,80.06
2019-01-21T04:15:10.495Z,80.73
2019-01-21T04:16:10.483Z,80.27
2019-01-21T04:17:10.512Z,80.52
2019-01-21T04:18:10.466Z,79.85
2019-01-21T04:19:10.449Z,79.85
2019-01-21T04:20:10.440Z,79.88
2019-01-21T04:21:10.436Z,80.21
2019-01-21T04:22:10.429Z,80.69
2019-01-21T04:23:10.434Z,80.41
2019-01-21T04:24:10.460Z,80.06
2019-01-21T04:25:10.402Z,80.49
2019-01-21T04:26:10.388Z,79.85
2019-01-21T04:27:10.376Z,79.88
2019-01-21T04:28:10.381Z,79.74
2019-01-21T04:29:10.369Z,79.85
2019-01-21T04:30:10.345Z,80.17
2019-01-21T04:31:10.330Z,79.99
2019-01-21T04:32:10.324Z,79.88
2019-01-21T04:33:10.336Z,80.21
2019-01-21T04:34:10.347Z,79.78
2019-01-21T04:35:10.299Z,80.21
2019-01-21T04:36:10.287Z,79.74
2019-01-21T04:37:10.318Z,80.21
2019-01-21T04:38:10.281Z,79.99
2019-01-21T04:39:10.267Z,80.10
2019-01-21T04:40:10.242Z,79.78
2019-01-21T04:41:10.232Z,79.88
2019-01-21T04:45:54.072Z,79.99
2019-01-21T04:47:11.391Z,79.99
2019-01-21T04:47:54.032Z,79.78
2019-01-21T04:49:24.313Z,80.21
2019-01-21T04:49:56.028Z,80.24
2019-01-21T04:50:55.848Z,80.21
2019-01-21T04:54:37.327Z,80.84
2019-01-21T04:55:34.163Z,80.63
2019-01-21T04:56:40.327Z,80.84
2019-01-21T05:04:21.632Z,80.13
2019-01-21T05:05:25.761Z,80.03
2019-01-21T05:06:32.814Z,80.03
2019-01-21T05:07:24.669Z,80.13
2019-01-21T05:09:23.310Z,79.92
2019-01-21T05:10:24.643Z,79.92
2019-01-21T05:11:22.393Z,80.52
2019-01-21T05:12:21.386Z,80.73
2019-01-21T05:13:27.177Z,79.82
2019-01-21T05:14:22.710Z,79.71
2019-01-21T05:15:29.926Z,79.25
2019-01-21T05:16:17.265Z,79.82
2019-01-21T05:17:17.275Z,79.71
2019-01-21T05:18:17.245Z,79.71
2019-01-21T05:23:08.761Z,80.98
2019-01-21T05:24:08.995Z,81.20
2019-01-21T05:25:08.662Z,81.09
2019-01-21T05:26:08.863Z,80.66
2019-01-21T05:27:08.601Z,80.88
2019-01-21T05:28:08.787Z,80.45
2019-01-21T05:29:08.760Z,81.02
2019-01-21T05:30:08.516Z,81.30
2019-01-21T05:31:09.176Z,81.20
2019-01-21T05:32:16.487Z,81.76
2019-01-21T05:33:08.567Z,82.18
2019-01-21T05:34:10.413Z,82.50
2019-01-21T05:35:09.434Z,82.36
2019-01-21T05:36:09.225Z,82.82
2019-01-21T05:37:08.744Z,83.46
2019-01-21T05:38:08.886Z,83.88
2019-01-21T05:39:08.310Z,83.25
2019-01-21T05:40:08.428Z,83.42
2019-01-21T05:41:08.586Z,83.74
2019-01-21T05:42:08.616Z,83.67
2019-01-21T05:43:08.724Z,83.84
2019-01-21T07:05:13.904Z,86.18
2019-01-21T07:06:14.141Z,86.39
2019-01-21T07:07:13.309Z,86.03
2019-01-21T07:08:13.165Z,85.75
2019-01-21T07:09:13.116Z,86.14
2019-01-21T07:10:13.110Z,86.14
2019-01-21T07:11:13.088Z,85.82
2019-01-21T07:12:13.099Z,85.39
2019-01-21T07:13:13.165Z,86.14
2019-01-21T07:14:14.188Z,85.82
2019-01-21T07:15:13.277Z,85.61
2019-01-21T07:16:13.953Z,84.97
2019-01-21T07:17:13.358Z,85.78
2019-01-21T07:18:15.474Z,85.14
2019-01-21T07:19:13.117Z,85.29
2019-01-21T07:20:13.091Z,85.08
2019-01-21T07:21:13.382Z,84.97
2019-01-21T07:22:13.042Z,84.97
2019-01-21T07:23:13.019Z,84.61
2019-01-21T07:24:13.102Z,84.72
2019-01-21T07:25:12.926Z,84.83
2019-01-21T07:26:12.952Z,85.18
2019-01-21T07:27:12.938Z,85.25
2019-01-21T07:28:13.026Z,85.78
2019-01-21T07:29:13.310Z,86.31
2019-01-21T07:30:12.915Z,86.10
2019-01-21T07:31:12.984Z,87.09
2019-01-21T07:32:13.112Z,86.24
2019-01-21T07:33:13.321Z,86.10
2019-01-21T07:34:13.061Z,86.66
2019-01-21T07:35:13.076Z,87.79
2019-01-21T07:36:13.095Z,88.53
2019-01-21T07:37:13.371Z,88.68
2019-01-21T07:39:12.833Z,87.30
2019-01-21T07:40:13.596Z,86.21
2019-01-21T07:41:13.532Z,86.21
2019-01-21T07:42:12.712Z,86.21
2019-01-21T07:43:12.861Z,85.89
2019-01-21T07:44:13.680Z,86.94
2019-01-21T07:45:13.303Z,86.41
2019-01-21T07:46:12.874Z,87.05
2019-01-21T07:47:13.421Z,86.63
2019-01-21T07:48:12.790Z,86.10
2019-01-21T07:49:17.507Z,86.10
2019-01-21T07:50:13.784Z,86.63
2019-01-21T07:51:13.119Z,86.10
2019-01-21T07:52:13.103Z,86.31
2019-01-21T07:53:12.694Z,86.94
2019-01-21T07:54:12.961Z,87.16
2019-01-21T07:55:13.349Z,87.05
2019-01-21T07:56:12.690Z,87.05
2019-01-21T07:57:12.600Z,87.01
2019-01-21T07:58:12.590Z,87.33
2019-01-21T07:59:12.652Z,87.12
2019-01-21T08:00:12.676Z,87.23
2019-01-21T08:01:13.233Z,87.12
2019-01-21T08:02:12.587Z,86.69
2019-01-21T08:03:13.161Z,87.01
2019-01-21T08:04:12.695Z,87.12
2019-01-21T08:05:12.483Z,87.01
2019-01-21T08:06:12.834Z,87.16
2019-01-21T08:07:13.266Z,87.01
2019-01-21T08:08:12.761Z,87.86
2019-01-21T08:09:12.613Z,88.28
2019-01-21T08:10:12.739Z,87.86
2019-01-21T08:11:12.501Z,88.18
2019-01-21T08:12:13.080Z,88.11
2019-01-21T08:13:12.519Z,87.65
2019-01-21T08:14:12.647Z,87.33
2019-01-21T08:15:12.783Z,87.43
2019-01-21T08:16:12.726Z,87.54
2019-01-21T08:17:12.928Z,87.54
2019-01-21T08:18:12.451Z,87.54
2019-01-21T08:19:12.706Z,88.39
2019-01-21T08:20:12.579Z,89.23
2019-01-21T08:21:12.675Z,89.66
2019-01-21T08:22:12.517Z,89.34
2019-01-21T08:23:12.448Z,89.66
2019-01-21T08:24:12.363Z,88.49
2019-01-21T08:25:12.371Z,88.88
2019-01-21T08:26:12.481Z,88.60
2019-01-21T08:27:13.088Z,87.96
2019-01-21T08:28:12.320Z,88.07
2019-01-21T08:29:12.390Z,89.87
2019-01-21T08:30:12.294Z,89.83
2019-01-21T08:31:12.692Z,90.04
2019-01-21T08:32:14.118Z,89.30
2019-01-21T08:33:12.308Z,89.40
2019-01-21T08:34:12.485Z,88.56
2019-01-21T08:35:12.349Z,88.35
2019-01-21T16:46:42.019Z,80.39
2019-01-21T16:50:31.777Z,80.00
2019-01-21T16:51:31.637Z,79.90
2019-01-21T16:52:31.527Z,80.22
2019-01-21T16:53:31.439Z,79.90
2019-01-21T16:54:31.297Z,80.74
2019-01-21T16:55:31.246Z,79.80
2019-01-21T16:56:31.244Z,80.00
2019-01-21T16:57:31.261Z,80.32
2019-01-21T16:58:31.212Z,80.32
2019-01-21T16:59:31.179Z,80.32
2019-01-21T17:00:31.318Z,80.53
2019-01-21T17:01:31.154Z,80.00
2019-01-21T17:02:31.199Z,80.53
2019-01-21T17:03:31.224Z,80.43
2019-01-21T17:04:32.762Z,80.11
2019-01-21T17:05:31.350Z,80.00
2019-01-21T17:06:31.837Z,80.00
2019-01-21T17:07:31.120Z,79.94
2019-01-21T17:08:31.098Z,79.94
2019-01-21T17:09:31.094Z,80.68
2019-01-21T17:10:31.090Z,80.11
2019-01-21T17:13:00.482Z,80.15
2019-01-21T17:14:00.318Z,80.36
2019-01-21T17:15:00.324Z,80.78
2019-01-21T17:16:00.266Z,80.88
2019-01-21T17:17:00.198Z,80.78
2019-01-21T17:18:00.201Z,80.15
2019-01-21T17:19:00.195Z,80.26
2019-01-21T17:20:00.214Z,80.15
2019-01-21T17:21:00.178Z,80.46
2019-01-21T17:22:00.189Z,80.82
2019-01-21T17:23:00.149Z,80.36
2019-01-21T17:24:00.137Z,80.50
2019-01-21T17:25:00.238Z,80.46
2019-01-21T17:26:00.151Z,80.40
2019-01-21T17:27:00.158Z,80.26
2019-01-21T17:28:00.090Z,80.36
2019-01-21T17:29:00.073Z,80.29
2019-01-21T17:30:00.095Z,80.50
2019-01-21T17:31:00.087Z,79.87
2019-01-21T17:32:00.059Z,80.40
2019-01-21T17:33:00.057Z,80.29
2019-01-21T17:34:00.024Z,79.97
2019-01-21T17:35:00.226Z,80.50
2019-01-21T17:36:00.019Z,80.40
2019-01-21T17:37:00.007Z,80.08
2019-01-21T17:38:00.031Z,80.60
2019-01-21T17:38:59.992Z,80.50
2019-01-21T17:39:59.974Z,80.29
2019-01-21T17:40:59.952Z,80.40
2019-01-21T17:41:59.954Z,80.08
2019-01-21T17:42:59.974Z,80.43
2019-01-21T17:43:59.933Z,80.40
2019-01-21T17:44:59.921Z,80.50
2019-01-21T17:45:59.905Z,80.29
2019-01-21T17:46:59.912Z,80.43
2019-01-21T17:47:59.883Z,80.60
2019-01-21T17:48:59.897Z,80.33
2019-01-21T17:49:59.859Z,80.64
2019-01-21T17:50:59.852Z,80.43
2019-01-21T17:51:59.844Z,80.85
2019-01-21T17:52:59.837Z,80.33
2019-01-21T17:53:59.858Z,80.64
2019-01-21T17:54:59.829Z,80.54
2019-01-21T17:55:59.796Z,80.22
2019-01-21T17:56:59.792Z,80.64
2019-01-21T17:57:59.784Z,80.75
2019-01-21T17:58:59.840Z,80.54
2019-01-21T17:59:59.769Z,80.11
2019-01-21T18:00:59.762Z,80.64
2019-01-21T18:01:59.731Z,80.54
2019-01-21T18:02:59.729Z,80.43
2019-01-21T18:03:59.758Z,80.85
2019-01-21T18:04:59.715Z,80.85
2019-01-21T18:05:59.705Z,80.47
2019-01-21T18:06:59.755Z,80.89
2019-01-21T18:07:59.703Z,80.57
2019-01-21T18:08:59.666Z,80.75
2019-01-21T18:09:59.676Z,80.57
2019-01-21T18:10:59.656Z,80.57
2019-01-21T18:11:59.667Z,80.89
2019-01-21T18:12:59.633Z,80.68
2019-01-21T18:13:59.661Z,80.05
2019-01-21T18:14:59.640Z,80.36
2019-01-21T18:15:59.616Z,80.36
2019-01-21T18:16:59.579Z,80.79
2019-01-21T18:17:59.584Z,80.29
2019-01-21T18:18:59.839Z,80.89
2019-01-21T18:19:59.606Z,80.93
2019-01-21T18:20:59.549Z,81.03
2019-01-21T18:21:59.643Z,80.79
2019-01-21T18:22:59.660Z,80.71
2019-01-21T18:23:59.590Z,81.24
2019-01-21T18:24:59.677Z,80.93
2019-01-21T18:25:59.560Z,80.93
2019-01-21T18:26:59.661Z,80.93
2019-01-21T18:27:59.496Z,81.24
2019-01-21T18:28:59.504Z,81.24
2019-01-21T18:29:59.520Z,81.13
2019-01-21T18:30:59.497Z,81.24
2019-01-21T18:31:59.483Z,81.70
2019-01-21T18:32:59.424Z,81.87
2019-01-21T18:33:59.524Z,81.38
2019-01-21T18:34:59.527Z,81.91
2019-01-21T18:35:59.512Z,82.23
2019-01-21T18:36:59.461Z,81.70
2019-01-21T18:37:59.398Z,81.87
2019-01-21T18:38:59.467Z,81.91
2019-01-21T18:39:59.365Z,81.66
2019-01-21T18:40:59.462Z,81.77
2019-01-21T18:41:59.492Z,81.28
2019-01-21T18:42:59.513Z,81.91
2019-01-21T18:43:59.418Z,82.29
2019-01-21T18:44:59.327Z,81.91
2019-01-21T18:45:59.309Z,82.12
2019-01-21T18:46:59.372Z,82.12
2019-01-21T18:47:59.355Z,81.81
2019-01-21T18:48:59.265Z,81.91
2019-01-21T18:49:59.282Z,81.91
2019-01-21T18:50:59.324Z,82.08
2019-01-21T18:51:59.347Z,81.91
2019-01-21T18:52:59.258Z,82.12
2019-01-21T18:53:59.257Z,82.23
2019-01-21T18:54:59.239Z,82.01
2019-01-21T18:55:59.227Z,82.23
2019-01-21T18:56:59.258Z,82.47
2019-01-21T18:57:59.200Z,82.01
2019-01-21T18:58:59.192Z,82.12
2019-01-21T18:59:59.222Z,81.81
2019-01-21T19:00:59.216Z,82.05
2019-01-21T19:01:59.199Z,82.01
2019-01-21T19:02:59.181Z,82.01
2019-01-21T19:03:59.147Z,81.81
2019-01-21T19:04:59.243Z,82.01
2019-01-21T19:05:59.169Z,81.81
2019-01-21T19:06:59.139Z,82.05
2019-01-21T19:07:59.169Z,82.05
2019-01-21T19:08:59.078Z,81.70
2019-01-21T19:09:59.093Z,81.91
2019-01-21T19:10:59.036Z,81.59
2019-01-21T19:11:59.018Z,82.05
2019-01-21T19:12:59.053Z,81.95
2019-01-21T19:13:58.995Z,82.16
2019-01-21T19:14:58.987Z,81.63
2019-01-21T19:15:58.993Z,81.70
2019-01-21T19:16:58.977Z,81.84
2019-01-21T19:17:58.985Z,81.74
2019-01-21T19:18:58.962Z,81.21
2019-01-21T19:19:58.978Z,80.68
2019-01-21T19:20:58.925Z,81.38
2019-01-21T19:22:06.594Z,81.10
2019-01-21T19:22:59.047Z,81.42
2019-01-21T19:24:06.504Z,81.17
2019-01-21T19:24:58.940Z,81.21
2019-01-21T19:26:06.478Z,81.42
2019-01-21T19:26:58.942Z,81.32
2019-01-21T19:28:06.528Z,81.21
2019-01-21T19:28:58.908Z,81.63
2019-01-21T19:30:06.614Z,80.79
2019-01-21T19:30:58.888Z,81.00
2019-01-21T19:32:06.663Z,80.68
2019-01-21T19:32:58.870Z,81.00
2019-01-21T19:33:58.897Z,81.52
2019-01-21T19:34:58.954Z,80.90
2019-01-21T19:35:58.793Z,81.00
2019-01-21T19:36:58.779Z,81.21
2019-01-21T19:37:58.880Z,80.68
2019-01-21T19:38:58.766Z,81.32
2019-01-21T19:40:06.392Z,80.79
2019-01-21T19:41:49.103Z,81.14
2019-01-21T19:42:56.646Z,80.79
2019-01-21T19:43:49.124Z,80.68
2019-01-21T19:46:04.978Z,81.14
2019-01-21T19:47:13.205Z,80.62
2019-01-21T19:48:04.660Z,80.72
2019-01-21T19:49:12.406Z,80.93
2019-01-21T19:50:04.701Z,80.72
2019-01-21T19:51:13.118Z,81.14
2019-01-21T19:52:04.713Z,80.62
2019-01-21T19:54:22.059Z,80.82
2019-01-21T19:55:29.170Z,80.93
2019-01-21T19:56:21.362Z,80.93
2019-01-21T19:57:28.916Z,80.72
2019-01-21T19:58:21.449Z,81.04
2019-01-21T19:59:28.996Z,81.07
2019-01-21T20:00:21.331Z,81.35
2019-01-21T20:01:29.010Z,80.82
2019-01-21T20:02:21.341Z,81.49
2019-01-21T20:03:21.371Z,80.97
2019-01-21T20:04:21.252Z,81.67
2019-01-21T20:05:21.247Z,81.14
2019-01-21T20:06:21.255Z,80.97
2019-01-21T20:07:28.819Z,80.65
2019-01-21T20:08:21.275Z,80.76
2019-01-21T20:09:22.113Z,81.18
2019-01-21T20:10:28.846Z,80.97
2019-01-21T20:11:21.206Z,81.07
2019-01-21T20:12:29.657Z,80.76
2019-01-21T20:13:21.213Z,81.18
2019-01-21T20:15:38.329Z,80.97
2019-01-21T20:16:37.850Z,80.76
2019-01-21T20:17:45.637Z,80.65
2019-01-21T20:18:37.791Z,81.60
2019-01-21T20:19:37.901Z,81.63
2019-01-21T20:20:46.200Z,81.60
2019-01-21T20:23:01.774Z,81.49
2019-01-21T20:24:01.208Z,81.63
2019-01-21T20:25:01.397Z,81.43
2019-01-21T20:26:01.260Z,81.32
2019-01-21T20:27:13.232Z,81.32
2019-01-21T20:28:05.847Z,81.32
2019-01-21T20:29:07.753Z,81.28
2019-01-21T20:30:07.899Z,81.63
2019-01-21T20:32:21.226Z,81.32
2019-01-21T20:34:46.339Z,80.79
2019-01-21T20:37:02.361Z,80.69
2019-01-21T20:38:02.346Z,80.69
2019-01-21T20:39:10.105Z,81.21
2019-01-21T20:41:40.049Z,80.69
2019-01-21T20:42:48.163Z,81.01
2019-01-21T20:43:43.540Z,81.21
2019-01-21T20:45:04.695Z,81.11
2019-01-21T20:45:51.628Z,81.21
2019-01-21T20:48:08.454Z,80.69
2019-01-21T20:50:53.177Z,80.69
2019-01-21T20:51:52.974Z,80.73
2019-01-21T20:52:53.446Z,81.01
2019-01-21T20:53:52.875Z,81.11
2019-01-21T20:54:52.886Z,80.83
2019-01-21T20:55:52.901Z,80.79
2019-01-21T20:56:52.923Z,80.83
2019-01-21T20:57:52.841Z,80.73
2019-01-21T20:58:53.066Z,81.15
2019-01-21T20:59:52.865Z,81.15
2019-01-21T21:00:52.790Z,81.15
2019-01-21T21:01:54.986Z,81.15
2019-01-21T21:02:52.832Z,80.73
2019-01-21T21:03:52.887Z,81.15
2019-01-21T21:04:52.795Z,81.15
2019-01-21T21:05:52.744Z,80.73
2019-01-21T21:06:52.830Z,80.73
2019-01-21T21:07:52.949Z,81.15
2019-01-21T21:08:56.804Z,80.93
2019-01-21T21:10:13.806Z,81.25
2019-01-21T21:10:53.720Z,81.57
2019-01-21T21:11:53.627Z,81.15
2019-01-21T21:12:56.823Z,81.35
2019-01-21T21:13:52.739Z,81.25
2019-01-21T21:14:52.799Z,81.57
2019-01-21T21:15:52.655Z,81.60
2019-01-21T21:18:27.230Z,81.39
2019-01-21T21:19:27.126Z,82.13
2019-01-21T21:20:27.737Z,82.24
2019-01-21T21:21:27.403Z,82.24
2019-01-21T21:22:27.179Z,82.34
2019-01-21T21:23:26.937Z,81.92
2019-01-21T21:24:36.096Z,82.13
2019-01-21T21:25:27.807Z,82.13
2019-01-21T21:26:34.762Z,81.92
2019-01-21T21:27:27.104Z,81.71
2019-01-21T21:28:29.835Z,81.82
2019-01-21T21:29:27.201Z,82.13
2019-01-21T21:30:26.882Z,82.34
2019-01-21T21:31:26.907Z,82.03
2019-01-21T21:32:26.883Z,82.24
2019-01-21T21:33:26.834Z,82.48
2019-01-21T21:34:27.758Z,82.76
2019-01-21T21:35:26.888Z,82.80
2019-01-21T21:36:26.806Z,83.01
2019-01-21T21:37:26.812Z,83.54
2019-01-21T21:38:26.797Z,83.97
2019-01-21T21:39:26.772Z,83.97
2019-01-21T21:40:26.782Z,85.44
2019-01-21T21:41:26.750Z,85.44
2019-01-21T21:42:26.759Z,85.23
2019-01-21T21:43:26.730Z,86.60
2019-01-21T21:44:26.877Z,86.50
2019-01-21T21:45:27.940Z,86.82
2019-01-21T21:46:26.705Z,88.51
2019-01-21T21:47:34.359Z,89.14
2019-01-21T21:48:31.680Z,89.52
2019-01-21T21:50:37.530Z,88.89
2019-01-21T21:51:45.038Z,89.20
2019-01-21T21:52:37.509Z,89.10
2019-01-21T21:53:37.793Z,89.00
2019-01-21T21:54:37.422Z,89.20
2019-01-21T21:55:46.800Z,89.10
2019-01-21T21:56:37.473Z,88.26
2019-01-21T21:57:37.448Z,88.68
2019-01-21T21:58:37.366Z,88.26
2019-01-21T21:59:37.341Z,87.09
2019-01-21T22:00:37.329Z,86.88
2019-01-21T22:01:40.128Z,86.88
2019-01-21T22:02:37.325Z,87.20
2019-01-21T22:03:44.957Z,87.62
2019-01-21T22:04:37.367Z,86.78
2019-01-21T22:05:37.412Z,86.95
2019-01-21T22:06:37.275Z,87.09
2019-01-21T22:07:37.338Z,86.46
2019-01-21T22:08:45.113Z,86.63
2019-01-21T22:09:37.312Z,87.09
2019-01-21T22:10:44.907Z,86.88
2019-01-21T22:11:37.227Z,87.20
2019-01-21T22:12:38.255Z,87.41
2019-01-21T22:13:38.276Z,87.41
2019-01-21T22:14:37.251Z,87.41
2019-01-21T22:15:46.345Z,86.35
2019-01-21T22:16:37.233Z,87.09
2019-01-21T22:17:44.840Z,86.25
2019-01-21T22:18:37.185Z,86.78
2019-01-21T22:19:37.257Z,86.53
2019-01-21T22:20:37.139Z,85.89
2019-01-21T22:21:37.114Z,86.32
2019-01-21T22:22:37.103Z,85.68
2019-01-21T22:23:37.158Z,85.36
2019-01-21T22:24:37.088Z,85.79
2019-01-21T22:25:44.690Z,86.53
2019-01-21T22:26:44.790Z,86.21
2019-01-21T22:27:45.827Z,86.32
2019-01-21T22:28:37.140Z,86.63
2019-01-21T22:29:44.803Z,87.16
2019-01-21T22:30:37.098Z,86.21
2019-01-21T22:31:45.982Z,85.89
2019-01-21T22:32:37.119Z,85.93
2019-01-21T22:33:44.729Z,85.58
2019-01-21T22:34:37.365Z,86.63
2019-01-21T22:35:37.275Z,86.84
2019-01-21T22:36:44.607Z,86.84
2019-01-21T22:37:46.590Z,85.79
2019-01-21T22:38:45.825Z,85.83
2019-01-21T22:39:36.998Z,85.79
2019-01-21T22:40:37.101Z,86.00
2019-01-21T22:41:36.929Z,86.95
2019-01-21T22:42:36.922Z,86.84
2019-01-21T22:45:41.033Z,87.27
2019-01-21T23:57:42.080Z,88.04
